Statewide Weather Sensors

Route Weather Station Name Milepost Date / Time Surface Status Surface Temp Precip Intensity Wind Avg Wind Gust Dir Dewpoint Humidity Air Temp Visibility
I 25 Wyo Hill 3.52 Jan 28, 2020 06:42 pm     None None 28 mph 34 mph NW 15.8°F 50% 32.0°F > 1/2 mi
I 25 Whitaker 30.2 Jan 28, 2020 06:42 pm Dry 27.9°F None None 9 mph 12 mph W 23.0°F 78% 30.2°F > 1/2 mi
I 25 Bear Creek 46.77 Jan 28, 2020 06:42 pm Dry 32.7°F None None 13 mph 22 mph SW 19.4°F 60% 32.0°F > 1/2 mi
I 25 Bordeaux 70.8 Jan 28, 2020 06:42 pm Dry 34.0°F None   17 mph 21 mph SW 21.2°F 55% 35.6°F  
I 25 Coleman 98.7 Jan 28, 2020 06:42 pm Dry 32.7°F None None 1 mph 4 mph S 21.2°F 59% 33.8°F > 1/2 mi
I 25 Platte/Converse County Line 119.9 Jan 28, 2020 06:42 pm Dry 26.4°F None None 3 mph 3 mph SW     -56.2°F > 1/2 mi
I 25 Deer Creek 164.2 Jan 28, 2020 06:42 pm N/A 31.5°F None None 9 mph 16 mph SW 21.2°F 63% 33.8°F > 1/2 mi
I 25 Hat Six 181.67 Jan 28, 2020 06:42 pm Chemically Wet 27.1°F None None 1 mph 9 mph SW 21.2°F 64% 32.0°F > 1/2 mi
I 25 F Street Hill 189.51 Jan 28, 2020 06:42 pm Dry 29.3°F None None 17 mph 27 mph SW 23.0°F 64% 33.8°F > 1/2 mi
I 25 Twenty Mile Hill 207.2 Jan 28, 2020 06:42 pm     None None 14 mph 16 mph S 23.0°F 87% 26.6°F > 1/2 mi
I 25 Smokey Gap 228.58 Jan 28, 2020 06:42 pm Chemically Wet 23.0°F None None 15 mph 21 mph S 21.2°F 77% 26.6°F > 1/2 mi
I 25 Tisdale 238.87 Jan 28, 2020 06:43 pm Dry 25.9°F None None 14 mph 17 mph SW 21.2°F 60% 32.0°F > 1/2 mi
I 25 I-25 Divide 267.3 Jan 28, 2020 06:42 pm N/A   None None 4 mph 4 mph W 17.6°F 58% 32.0°F > 1/2 mi
I 80 Evanston POE .06 Jan 28, 2020 06:42 pm Dry 32.5°F None   1 mph 9 mph S 24.8°F 84% 28.4°F > 1/2 mi
I 80 Evanston 4.2 Jan 28, 2020 06:42 pm Dry 51.8°F None None 9 mph 12 mph SW 24.8°F 86% 28.4°F > 1/2 mi
I 80 Bear River Drive 6.94 Jan 28, 2020 06:42 pm Dry 29.8°F None   1 mph 12 mph SW 24.8°F 83% 30.2°F > 1/2 mi
I 80 Painter 10.16 Jan 28, 2020 06:42 pm Wet 33.4°F Snow None 6 mph 7 mph SW 24.8°F 81% 28.4°F > 1/2 mi
I 80 First Divide 13.86 Jan 28, 2020 06:42 pm N/A   None   12 mph 15 mph W 23.0°F 86% 26.6°F  
I 80 US 189 Interchange 17.66 Jan 28, 2020 06:42 pm Trace Moisture 34.5°F Snow None 8 mph 11 mph SW 24.8°F 83% 28.4°F > 1/2 mi
I 80 Coal Road 20.95 Jan 28, 2020 06:42 pm Trace Moisture 32.4°F Snow None 9 mph 14 mph SW 24.8°F 88% 28.4°F > 1/2 mi
I 80 Leroy 23.35 Jan 28, 2020 06:42 pm Dry 34.5°F None None 8 mph 12 mph SW 23.0°F 75% 30.2°F > 1/2 mi
I 80 French 27.6 Jan 28, 2020 06:42 pm Dry 33.6°F None None 9 mph 12 mph W 24.8°F 83% 28.4°F > 1/2 mi
I 80 Church Butte 52.65 Jan 28, 2020 06:42 pm N/A   None None 11 mph 14 mph W 26.6°F 83% 30.2°F > 1/2 mi
I 80 Peru Hill 82.31 Jan 28, 2020 06:42 pm N/A   None   8 mph 11 mph S 21.2°F 67% 32.0°F  
I 80 Green River Tunnel 90.5 Jan 28, 2020 06:42 pm Wet 33.8°F Rain   2 mph 3 mph SE 28.4°F 85% 32.0°F  
I 80 Rock Springs West 97.9 Jan 28, 2020 06:42 pm Wet 31.6°F Freezing Rain Slight 8 mph 11 mph W 28.4°F 97% 30.2°F > 1/2 mi
I 80 Baxter Road 111.5 Jan 28, 2020 06:42 pm       None 1 mph 11 mph   28.4°F 90% 30.2°F > 1/2 mi
I 80 Mile Marker 124.5 124.5 Jan 28, 2020 06:42 pm N/A   None None 5 mph 7 mph SW 28.4°F 96% 30.2°F > 1/2 mi
I 80 Point of Rocks 129.8 Jan 28, 2020 06:42 pm N/A   None None 9 mph 14 mph N 28.4°F 98% 30.2°F > 1/2 mi
I 80 Bitter Creek 141.83 Jan 28, 2020 06:42 pm Ice Warning 29.7°F None   17 mph 21 mph SW 23.0°F 83% 26.6°F  
I 80 Tipton 156.72 Jan 28, 2020 06:42 pm Chemically Wet 29.5°F None None 16 mph 20 mph SW 26.6°F 98% 28.4°F > 1/2 mi
I 80 Continental Divide 184.3 Jan 28, 2020 06:42 pm N/A   None   20 mph 25 mph S 23.0°F 99% 23.0°F  
I 80 Sinclair 221.7 Jan 28, 2020 06:42 pm N/A   None None 12 mph 19 mph SW 17.6°F 65% 28.4°F > 1/2 mi
I 80 Walcott Junction 234.66 Jan 28, 2020 06:42 pm N/A   None None 18 mph 21 mph SW 19.4°F 75% 26.6°F > 1/2 mi
I 80 Dana Ridge 244.8 Jan 28, 2020 06:42 pm Trace Moisture 26.2°F None None 0 mph 0 mph S 21.2°F 82% 24.8°F > 1/2 mi
I 80 Mile Marker 249.1 249.1 Jan 28, 2020 06:42 pm Ice Warning 25.9°F None None 25 mph 30 mph W 19.4°F 73% 26.6°F > 1/2 mi
I 80 Halleck Ridge 252.16 Jan 28, 2020 06:42 pm N/A   None None 29 mph 36 mph SW 17.6°F 70% 26.6°F > 1/2 mi
I 80 Elk Mountain 256.17 Jan 28, 2020 06:42 pm Trace Moisture 26.4°F None None 22 mph 23 mph S 19.4°F 72% 28.4°F > 1/2 mi
I 80 County Road 402 262 Jan 28, 2020 06:42 pm Dry 27.1°F None None 19 mph 30 mph S 19.4°F 75% 26.6°F > 1/2 mi
I 80 Wagonhound 266.58 Jan 28, 2020 06:42 pm Dry 26.1°F None None 21 mph 25 mph SW 19.4°F 78% 26.6°F > 1/2 mi
I 80 Foote Creek 269.5 Jan 28, 2020 06:42 pm Trace Moisture 23.9°F None None 21 mph 25 mph SW 19.4°F 77% 26.6°F > 1/2 mi
I 80 Arlington 271.8 Jan 28, 2020 06:42 pm N/A 27.9°F None None 24 mph 31 mph W -18.4°F 12% 26.6°F > 1/2 mi
I 80 Arlington East 273.85 Jan 28, 2020 06:42 pm Dry 26.1°F None None 21 mph 29 mph SW 19.4°F 74% 26.6°F > 1/2 mi
I 80 Cooper Cove 279.36 Jan 28, 2020 06:42 pm Dry 24.8°F None None 19 mph 32 mph S 17.6°F 67% 26.6°F > 1/2 mi
I 80 Strouss Hill 283.75 Jan 28, 2020 06:42 pm Dry 26.6°F None None 3 mph 9 mph SW 17.6°F 68% 26.6°F > 1/2 mi
I 80 Quealy Dome 289.5 Jan 28, 2020 06:42 pm Dry 27.3°F None None 3 mph 6 mph SW 17.6°F 75% 24.8°F > 1/2 mi
I 80 Herrick Lane 297.66 Jan 28, 2020 06:42 pm N/A   None None 4 mph 6 mph N 15.8°F 67% 24.8°F > 1/2 mi
I 80 Summit East 325.8 Jan 28, 2020 06:42 pm Dry 21.7°F None None 27 mph 35 mph W 15.8°F 80% 19.4°F > 1/2 mi
I 80 Vedauwoo 329.4 Jan 28, 2020 06:42 pm Dry 21.6°F None None 27 mph 34 mph W 14.0°F 72% 21.2°F > 1/2 mi
I 80 Lone Tree 333.32 Jan 28, 2020 06:42 pm Dry 24.3°F None None 25 mph 32 mph W 14.0°F 67% 23.0°F > 1/2 mi
I 80 Buford East 336.1 Jan 28, 2020 06:42 pm Dry 25.3°F None None 27 mph 34 mph W 14.0°F 63% 24.8°F > 1/2 mi
I 80 Remount Road 340.5 Jan 28, 2020 06:42 pm N/A   None None 17 mph 24 mph SW 14.0°F 63% 24.8°F > 1/2 mi
I 80 Otto 347.69 Jan 28, 2020 06:42 pm Dry 30.2°F None None 17 mph 23 mph W 14.0°F 55% 28.4°F > 1/2 mi
I 80 MP 353 353 Jan 28, 2020 06:42 pm Dry 31.3°F None None 29 mph 35 mph W 14.0°F 52% 30.2°F > 1/2 mi
I 80 Cheyenne East 373 Jan 28, 2020 06:42 pm Dry 33.1°F None None 11 mph 15 mph NW 19.4°F 64% 30.2°F > 1/2 mi
I 90 Montana State Line .1 Jan 28, 2020 06:42 pm Trace Moisture 34.9°F None None 1 mph 2 mph NW 24.8°F 61% 37.4°F > 1/2 mi
I 90 Pompey Creek 35.3 Jan 28, 2020 06:42 pm N/A   None None 4 mph 6 mph S   53% 23.0°F > 1/2 mi
I 90 Sheridan/Johnson County Line 41.33 Jan 28, 2020 06:42 pm Dry   None None 10 mph 14 mph N   42% 24.8°F > 1/2 mi
I 90 Piney Creek Interchange 44.7 Jan 28, 2020 06:42 pm Dry 35.4°F None None 7 mph 8 mph S 17.6°F 47% 35.6°F > 1/2 mi
I 90 Kearny Divide 45.33 Jan 28, 2020 06:42 pm Dry   None None 4 mph 5 mph S   48% 21.2°F > 1/2 mi
I 90 Indian Creek Road 83.3 Jan 28, 2020 06:42 pm Trace Moisture 30.2°F None None 10 mph 12 mph NE 24.8°F 75% 32.0°F > 1/2 mi
I 90 Dead Horse 91.5 Jan 28, 2020 06:42 pm Ice Watch 30.4°F None None 5 mph 7 mph SE 23.0°F 67% 32.0°F > 1/2 mi
I 90 Mile Marker 108 108 Jan 28, 2020 06:42 pm N/A   None None 0 mph 0 mph SW 21.2°F 72% 28.4°F > 1/2 mi
I 90 Inyan Kara 170.5 Jan 28, 2020 06:42 pm N/A 27.1°F None   10 mph 11 mph SE 19.4°F 70% 26.6°F  
I 90 Beulah 205.9 Jan 28, 2020 06:42 pm Dry 32.2°F None None 5 mph 11 mph NW 21.2°F 65% 32.0°F > 1/2 mi
US 14 Ucross 27.83 Jan 28, 2020 06:42 pm Wet 34.7°F None None 5 mph 5 mph S 28.4°F 74% 35.6°F N/A
US 14 Granite Pass 38.95 Jan 28, 2020 06:42 pm N/A   Freezing Rain None 29 mph 29 mph NE 15.8°F 72% 23.0°F > 1/2 mi
US 16 Big Horn County Line 44.01 Jan 28, 2020 06:42 pm Ice Warning 22.6°F None None 2 mph 4 mph N 17.6°F 80% 23.0°F > 1/2 mi
US 191 Farson 40.45 Jan 28, 2020 06:42 pm N/A   None None 9 mph 14 mph SE 26.6°F 92% 28.4°F > 1/2 mi
US 191 Rim US 191 127 Jul 30, 2019 02:34 pm                      
US 20 Natrona 30 Jan 28, 2020 06:42 pm Ice Watch 28.0°F None   6 mph 7 mph W 21.2°F 81% 26.6°F > 1/2 mi
US 20 Hiland 57.4 Jan 28, 2020 06:42 pm N/A 29.3°F None None 2 mph 12 mph NE 23.0°F 72% 30.2°F > 1/2 mi
US 20 Van Tassell 57.85 Jan 28, 2020 06:42 pm Dry 24.1°F None None 1 mph 2 mph SE 15.8°F 82% 21.2°F > 1/2 mi
US 26 Wind River Lake 26.05 Jan 28, 2020 06:42 pm Ice Warning 22.5°F Snow None 1 mph 8 mph E 17.6°F 97% 19.4°F > 1/2 mi
US 287 Pumpkin Vine 420.4 Jan 28, 2020 06:42 pm N/A   None None 17 mph 24 mph W 12.2°F 66% 23.0°F > 1/2 mi
US 30 Sage Junction 34 Jan 28, 2020 06:42 pm N/A   None None 5 mph 6 mph N       > 1/2 mi
US 30 Nugget Canyon 39.7 Jan 28, 2020 06:42 pm N/A   Snow None 6 mph 14 mph N 26.6°F 83% 30.2°F > 1/2 mi
US 85 Gun Barrel 46.8 Jan 28, 2020 06:42 pm N/A 29.7°F None None 12 mph 15 mph W 19.4°F 64% 30.2°F  
US 85 Four Corners 247.2 Jan 28, 2020 06:42 pm Dry 22.5°F None None 7 mph 9 mph E 19.4°F 81% 24.8°F > 1/2 mi
WY 120 Meeteetse 61.5 Jan 28, 2020 06:42 pm Wet 36.0°F None   10 mph 11 mph S 6.8°F 33% 33.8°F  
WY 210 Wildcat Trail 21.52 Jan 28, 2020 06:42 pm Dry 26.4°F None None 9 mph 14 mph W 15.8°F 61% 26.6°F > 1/2 mi
WY 210 Hynds Lodge Road 24.55 Jan 28, 2020 06:42 pm Dry 25.0°F None None 12 mph 24 mph SW 15.8°F 64% 26.6°F > 1/2 mi
WY 22 Teton Pass 11.2 Jan 28, 2020 06:42 pm Ice Watch 26.8°F Snow None 1 mph 5 mph W 23.0°F 99% 23.0°F > 1/2 mi
WY 220 Pathfinder Hill 80.1 Jan 28, 2020 06:42 pm Ice Watch 26.2°F None None 7 mph 11 mph S 19.4°F 81% 23.0°F > 1/2 mi
WY 230 Skyline 230 113.2 Jan 28, 2020 06:42 pm Dry 27.7°F None None 14 mph 23 mph SW 17.6°F 78% 24.8°F > 1/2 mi
WY 258 Outer Drive 13.77 Jan 28, 2020 06:42 pm Ice Watch 24.6°F None None 22 mph 29 mph SW 23.0°F 61% 33.8°F > 1/2 mi
WY 28 New South Pass 41.4 Jan 28, 2020 06:42 pm Trace Moisture 20.7°F None None 20 mph 24 mph W 21.2°F 94% 21.2°F > 1/2 mi
WY 28 Lower Red Canyon 59.71 Jan 28, 2020 06:42 pm Dry 30.2°F None None 2 mph 8 mph SW 17.6°F 63% 28.4°F > 1/2 mi
WY 296 Chief Joseph 32.96 Jan 28, 2020 06:42 pm Ice Warning 26.4°F None None 17 mph 21 mph N 19.4°F 75% 26.6°F  
WY 372 Shute Creek 36 Jan 28, 2020 06:42 pm Dry 29.3°F None   6 mph 9 mph SW 24.8°F 84% 28.4°F  
WY 387 Pine Tree Junction 131.79 Dec 01, 2019 07:38 pm                      
WY 487 Shirley Rim 37 Jan 28, 2020 06:42 pm Ice Watch 23.0°F None None 6 mph 11 mph W 19.4°F 85% 23.0°F > 1/2 mi
WY 59 Belle Fourche 87 Jan 28, 2020 06:42 pm Dry 28.4°F None   8 mph 9 mph W 19.4°F 80% 24.8°F  
WY 789 Beaver Rim 48.1 Jan 28, 2020 06:42 pm     None None 14 mph 17 mph SW 24.8°F 91% 26.6°F > 1/2 mi

Contact Us
Copyright 2020 Disclaimer Privacy Policy Media